sensor_id;sensor_type;location;lat;lon;timestamp;P1;durP1;ratioP1;P2;durP2;ratioP2
18661;SDS011;61528;49.456;11.098;2023-05-16T00:01:15;7.50;;;6.63;;
18661;SDS011;61528;49.456;11.098;2023-05-16T00:03:42;8.07;;;6.80;;
18661;SDS011;61528;49.456;11.098;2023-05-16T00:06:09;6.97;;;6.33;;
18661;SDS011;61528;49.456;11.098;2023-05-16T00:08:36;7.07;;;6.37;;
18661;SDS011;61528;49.456;11.098;2023-05-16T00:11:02;7.77;;;7.07;;
18661;SDS011;61528;49.456;11.098;2023-05-16T00:13:28;6.90;;;6.40;;
18661;SDS011;61528;49.456;11.098;2023-05-16T00:15:55;7.53;;;6.87;;
18661;SDS011;61528;49.456;11.098;2023-05-16T00:18:22;7.60;;;6.80;;
18661;SDS011;61528;49.456;11.098;2023-05-16T00:20:52;7.93;;;7.27;;
18661;SDS011;61528;49.456;11.098;2023-05-16T00:23:19;7.63;;;6.93;;
18661;SDS011;61528;49.456;11.098;2023-05-16T00:25:46;7.60;;;6.90;;
18661;SDS011;61528;49.456;11.098;2023-05-16T00:28:13;8.37;;;7.63;;
18661;SDS011;61528;49.456;11.098;2023-05-16T00:30:39;7.73;;;7.03;;
18661;SDS011;61528;49.456;11.098;2023-05-16T00:33:05;8.73;;;7.87;;
18661;SDS011;61528;49.456;11.098;2023-05-16T00:35:31;8.03;;;7.23;;
18661;SDS011;61528;49.456;11.098;2023-05-16T00:37:58;8.37;;;7.60;;
18661;SDS011;61528;49.456;11.098;2023-05-16T00:40:24;7.77;;;7.07;;
18661;SDS011;61528;49.456;11.098;2023-05-16T00:42:50;8.70;;;7.87;;
18661;SDS011;61528;49.456;11.098;2023-05-16T00:45:16;8.03;;;7.23;;
18661;SDS011;61528;49.456;11.098;2023-05-16T00:47:43;8.90;;;8.10;;
18661;SDS011;61528;49.456;11.098;2023-05-16T00:50:09;8.87;;;7.97;;
18661;SDS011;61528;49.456;11.098;2023-05-16T00:52:35;8.93;;;8.03;;
18661;SDS011;61528;49.456;11.098;2023-05-16T00:55:02;9.10;;;8.20;;
18661;SDS011;61528;49.456;11.098;2023-05-16T00:57:28;8.77;;;7.97;;
18661;SDS011;61528;49.456;11.098;2023-05-16T00:59:55;8.97;;;8.07;;
18661;SDS011;61528;49.456;11.098;2023-05-16T01:02:21;9.70;;;8.40;;
18661;SDS011;61528;49.456;11.098;2023-05-16T01:04:51;9.27;;;8.37;;
18661;SDS011;61528;49.456;11.098;2023-05-16T01:07:17;8.23;;;7.53;;
18661;SDS011;61528;49.456;11.098;2023-05-16T01:09:44;9.00;;;8.20;;
18661;SDS011;61528;49.456;11.098;2023-05-16T01:27:42;7.57;;;6.90;;
18661;SDS011;61528;49.456;11.098;2023-05-16T01:30:14;7.47;;;6.77;;
18661;SDS011;61528;49.456;11.098;2023-05-16T01:32:41;8.03;;;7.20;;
18661;SDS011;61528;49.456;11.098;2023-05-16T01:35:07;7.67;;;6.97;;
18661;SDS011;61528;49.456;11.098;2023-05-16T01:37:35;7.60;;;6.90;;
18661;SDS011;61528;49.456;11.098;2023-05-16T01:40:09;7.10;;;6.23;;
18661;SDS011;61528;49.456;11.098;2023-05-16T01:42:38;7.87;;;6.90;;
18661;SDS011;61528;49.456;11.098;2023-05-16T01:45:17;7.70;;;7.07;;
18661;SDS011;61528;49.456;11.098;2023-05-16T01:47:46;8.93;;;6.97;;
18661;SDS011;61528;49.456;11.098;2023-05-16T01:50:15;8.47;;;7.57;;
18661;SDS011;61528;49.456;11.098;2023-05-16T01:55:17;8.27;;;7.57;;
18661;SDS011;61528;49.456;11.098;2023-05-16T01:57:46;8.57;;;7.83;;
18661;SDS011;61528;49.456;11.098;2023-05-16T02:00:13;8.07;;;7.27;;
18661;SDS011;61528;49.456;11.098;2023-05-16T02:02:40;8.50;;;7.80;;
18661;SDS011;61528;49.456;11.098;2023-05-16T02:05:06;8.47;;;7.33;;
18661;SDS011;61528;49.456;11.098;2023-05-16T02:07:33;8.10;;;7.30;;
18661;SDS011;61528;49.456;11.098;2023-05-16T02:10:00;8.50;;;7.70;;
18661;SDS011;61528;49.456;11.098;2023-05-16T02:12:28;8.57;;;7.77;;
18661;SDS011;61528;49.456;11.098;2023-05-16T02:14:55;8.17;;;7.37;;
18661;SDS011;61528;49.456;11.098;2023-05-16T02:17:21;7.90;;;7.27;;
18661;SDS011;61528;49.456;11.098;2023-05-16T02:19:47;9.47;;;8.57;;
18661;SDS011;61528;49.456;11.098;2023-05-16T02:22:13;8.77;;;7.97;;
18661;SDS011;61528;49.456;11.098;2023-05-16T02:24:39;9.63;;;8.83;;
18661;SDS011;61528;49.456;11.098;2023-05-16T02:27:06;9.03;;;8.13;;
18661;SDS011;61528;49.456;11.098;2023-05-16T02:29:32;9.50;;;8.60;;
18661;SDS011;61528;49.456;11.098;2023-05-16T02:31:58;8.83;;;8.03;;
18661;SDS011;61528;49.456;11.098;2023-05-16T02:34:25;9.03;;;8.20;;
18661;SDS011;61528;49.456;11.098;2023-05-16T02:36:51;8.47;;;7.63;;
18661;SDS011;61528;49.456;11.098;2023-05-16T02:39:17;8.77;;;7.97;;
18661;SDS011;61528;49.456;11.098;2023-05-16T02:41:44;9.43;;;8.43;;
18661;SDS011;61528;49.456;11.098;2023-05-16T02:44:10;9.33;;;8.43;;
18661;SDS011;61528;49.456;11.098;2023-05-16T02:46:36;8.47;;;7.67;;
18661;SDS011;61528;49.456;11.098;2023-05-16T02:49:03;7.73;;;7.00;;
18661;SDS011;61528;49.456;11.098;2023-05-16T02:51:29;8.33;;;7.60;;
18661;SDS011;61528;49.456;11.098;2023-05-16T02:53:55;7.90;;;7.20;;
18661;SDS011;61528;49.456;11.098;2023-05-16T02:56:23;7.93;;;7.23;;
18661;SDS011;61528;49.456;11.098;2023-05-16T02:58:52;7.27;;;6.67;;
18661;SDS011;61528;49.456;11.098;2023-05-16T03:01:19;7.67;;;6.97;;
18661;SDS011;61528;49.456;11.098;2023-05-16T03:03:45;7.83;;;7.07;;
18661;SDS011;61528;49.456;11.098;2023-05-16T03:06:11;7.13;;;6.47;;
18661;SDS011;61528;49.456;11.098;2023-05-16T03:08:38;8.57;;;7.20;;
18661;SDS011;61528;49.456;11.098;2023-05-16T03:11:04;7.60;;;7.00;;
18661;SDS011;61528;49.456;11.098;2023-05-16T03:13:30;7.67;;;6.97;;
18661;SDS011;61528;49.456;11.098;2023-05-16T03:15:57;10.40;;;7.27;;
18661;SDS011;61528;49.456;11.098;2023-05-16T03:18:24;8.67;;;6.93;;
18661;SDS011;61528;49.456;11.098;2023-05-16T03:20:50;7.57;;;6.50;;
18661;SDS011;61528;49.456;11.098;2023-05-16T03:23:19;7.70;;;7.00;;
18661;SDS011;61528;49.456;11.098;2023-05-16T03:25:46;7.20;;;6.50;;
18661;SDS011;61528;49.456;11.098;2023-05-16T03:28:15;7.03;;;6.30;;
18661;SDS011;61528;49.456;11.098;2023-05-16T03:30:45;7.70;;;6.47;;
18661;SDS011;61528;49.456;11.098;2023-05-16T03:33:11;6.90;;;6.23;;
18661;SDS011;61528;49.456;11.098;2023-05-16T03:35:37;8.67;;;6.47;;
18661;SDS011;61528;49.456;11.098;2023-05-16T03:38:04;7.00;;;6.40;;
18661;SDS011;61528;49.456;11.098;2023-05-16T03:40:30;6.60;;;6.00;;
18661;SDS011;61528;49.456;11.098;2023-05-16T03:42:56;6.80;;;6.10;;
18661;SDS011;61528;49.456;11.098;2023-05-16T03:45:23;7.17;;;6.47;;
18661;SDS011;61528;49.456;11.098;2023-05-16T03:47:49;7.17;;;6.47;;
18661;SDS011;61528;49.456;11.098;2023-05-16T03:50:15;8.60;;;7.43;;
18661;SDS011;61528;49.456;11.098;2023-05-16T03:52:41;8.10;;;7.30;;
18661;SDS011;61528;49.456;11.098;2023-05-16T03:55:08;7.87;;;7.20;;
18661;SDS011;61528;49.456;11.098;2023-05-16T03:57:35;8.37;;;7.50;;
18661;SDS011;61528;49.456;11.098;2023-05-16T04:00:03;9.83;;;7.60;;
18661;SDS011;61528;49.456;11.098;2023-05-16T04:02:32;7.90;;;6.83;;
18661;SDS011;61528;49.456;11.098;2023-05-16T04:04:58;8.67;;;7.53;;
18661;SDS011;61528;49.456;11.098;2023-05-16T04:07:25;10.27;;;7.80;;
18661;SDS011;61528;49.456;11.098;2023-05-16T04:09:52;9.17;;;7.33;;
18661;SDS011;61528;49.456;11.098;2023-05-16T04:12:20;8.03;;;7.33;;
18661;SDS011;61528;49.456;11.098;2023-05-16T04:14:47;11.53;;;10.43;;
18661;SDS011;61528;49.456;11.098;2023-05-16T04:17:14;9.60;;;8.70;;
18661;SDS011;61528;49.456;11.098;2023-05-16T04:19:40;8.33;;;7.53;;
18661;SDS011;61528;49.456;11.098;2023-05-16T04:22:06;14.23;;;12.73;;
18661;SDS011;61528;49.456;11.098;2023-05-16T04:24:32;19.13;;;15.90;;
18661;SDS011;61528;49.456;11.098;2023-05-16T04:26:59;16.70;;;15.00;;
18661;SDS011;61528;49.456;11.098;2023-05-16T04:29:25;16.23;;;14.30;;
18661;SDS011;61528;49.456;11.098;2023-05-16T04:31:52;15.47;;;13.87;;
18661;SDS011;61528;49.456;11.098;2023-05-16T04:34:19;14.93;;;13.40;;
18661;SDS011;61528;49.456;11.098;2023-05-16T04:36:45;15.70;;;14.03;;
18661;SDS011;61528;49.456;11.098;2023-05-16T04:39:11;17.20;;;14.63;;
18661;SDS011;61528;49.456;11.098;2023-05-16T04:41:37;15.57;;;13.60;;
18661;SDS011;61528;49.456;11.098;2023-05-16T04:44:03;15.10;;;13.37;;
18661;SDS011;61528;49.456;11.098;2023-05-16T04:46:30;16.33;;;14.53;;
18661;SDS011;61528;49.456;11.098;2023-05-16T04:48:56;14.30;;;12.90;;
18661;SDS011;61528;49.456;11.098;2023-05-16T04:51:22;13.60;;;12.30;;
18661;SDS011;61528;49.456;11.098;2023-05-16T04:53:49;13.90;;;12.57;;
18661;SDS011;61528;49.456;11.098;2023-05-16T04:56:15;12.97;;;11.67;;
18661;SDS011;61528;49.456;11.098;2023-05-16T04:58:41;13.10;;;11.80;;
18661;SDS011;61528;49.456;11.098;2023-05-16T05:01:08;12.80;;;11.53;;
18661;SDS011;61528;49.456;11.098;2023-05-16T05:03:34;11.73;;;10.57;;
18661;SDS011;61528;49.456;11.098;2023-05-16T05:06:01;14.40;;;11.87;;
18661;SDS011;61528;49.456;11.098;2023-05-16T05:08:27;14.83;;;11.33;;
18661;SDS011;61528;49.456;11.098;2023-05-16T05:10:56;14.37;;;12.87;;
18661;SDS011;61528;49.456;11.098;2023-05-16T05:13:22;13.80;;;12.07;;
18661;SDS011;61528;49.456;11.098;2023-05-16T05:15:48;14.50;;;12.90;;
18661;SDS011;61528;49.456;11.098;2023-05-16T05:18:16;15.93;;;13.33;;
18661;SDS011;61528;49.456;11.098;2023-05-16T05:20:42;15.13;;;12.10;;
18661;SDS011;61528;49.456;11.098;2023-05-16T05:23:08;13.23;;;11.83;;
18661;SDS011;61528;49.456;11.098;2023-05-16T05:25:35;13.23;;;11.93;;
18661;SDS011;61528;49.456;11.098;2023-05-16T05:28:01;13.40;;;12.10;;
18661;SDS011;61528;49.456;11.098;2023-05-16T05:30:28;12.93;;;11.63;;
18661;SDS011;61528;49.456;11.098;2023-05-16T05:32:54;12.80;;;11.57;;
18661;SDS011;61528;49.456;11.098;2023-05-16T05:35:22;12.73;;;11.43;;
18661;SDS011;61528;49.456;11.098;2023-05-16T05:37:49;12.47;;;11.20;;
18661;SDS011;61528;49.456;11.098;2023-05-16T05:40:16;13.70;;;11.60;;
18661;SDS011;61528;49.456;11.098;2023-05-16T05:42:42;12.17;;;11.07;;
18661;SDS011;61528;49.456;11.098;2023-05-16T05:45:09;12.47;;;11.27;;
18661;SDS011;61528;49.456;11.098;2023-05-16T05:47:36;12.43;;;11.17;;
18661;SDS011;61528;49.456;11.098;2023-05-16T05:50:02;12.37;;;10.63;;
18661;SDS011;61528;49.456;11.098;2023-05-16T05:52:29;14.90;;;11.97;;
18661;SDS011;61528;49.456;11.098;2023-05-16T05:54:56;11.73;;;10.63;;
18661;SDS011;61528;49.456;11.098;2023-05-16T05:57:23;15.50;;;11.33;;
18661;SDS011;61528;49.456;11.098;2023-05-16T05:59:50;12.93;;;11.17;;
18661;SDS011;61528;49.456;11.098;2023-05-16T06:02:16;11.97;;;10.67;;
18661;SDS011;61528;49.456;11.098;2023-05-16T06:04:42;12.67;;;11.40;;
18661;SDS011;61528;49.456;11.098;2023-05-16T06:07:09;12.03;;;10.80;;
18661;SDS011;61528;49.456;11.098;2023-05-16T06:09:35;12.23;;;11.13;;
18661;SDS011;61528;49.456;11.098;2023-05-16T06:12:02;11.47;;;10.23;;
18661;SDS011;61528;49.456;11.098;2023-05-16T06:14:28;11.70;;;10.60;;
18661;SDS011;61528;49.456;11.098;2023-05-16T06:16:54;12.27;;;11.03;;
18661;SDS011;61528;49.456;11.098;2023-05-16T06:19:20;12.57;;;11.47;;
18661;SDS011;61528;49.456;11.098;2023-05-16T06:21:47;11.97;;;10.83;;
18661;SDS011;61528;49.456;11.098;2023-05-16T06:24:13;11.33;;;10.33;;
18661;SDS011;61528;49.456;11.098;2023-05-16T06:26:40;12.33;;;11.13;;
18661;SDS011;61528;49.456;11.098;2023-05-16T06:29:06;10.87;;;9.77;;
18661;SDS011;61528;49.456;11.098;2023-05-16T06:31:32;11.80;;;10.70;;
18661;SDS011;61528;49.456;11.098;2023-05-16T06:33:59;12.43;;;11.13;;
18661;SDS011;61528;49.456;11.098;2023-05-16T06:36:25;12.23;;;11.00;;
18661;SDS011;61528;49.456;11.098;2023-05-16T06:38:51;11.57;;;10.47;;
18661;SDS011;61528;49.456;11.098;2023-05-16T06:41:17;11.73;;;10.53;;
18661;SDS011;61528;49.456;11.098;2023-05-16T06:43:43;11.03;;;9.93;;
18661;SDS011;61528;49.456;11.098;2023-05-16T06:46:09;10.90;;;9.90;;
18661;SDS011;61528;49.456;11.098;2023-05-16T06:48:36;15.40;;;10.60;;
18661;SDS011;61528;49.456;11.098;2023-05-16T06:51:02;11.20;;;9.67;;
18661;SDS011;61528;49.456;11.098;2023-05-16T06:53:28;11.23;;;10.17;;
18661;SDS011;61528;49.456;11.098;2023-05-16T06:55:55;11.40;;;10.30;;
18661;SDS011;61528;49.456;11.098;2023-05-16T06:58:21;11.53;;;9.63;;
18661;SDS011;61528;49.456;11.098;2023-05-16T07:00:48;9.97;;;9.00;;
18661;SDS011;61528;49.456;11.098;2023-05-16T07:03:15;9.47;;;8.50;;
18661;SDS011;61528;49.456;11.098;2023-05-16T07:05:41;9.67;;;8.67;;
18661;SDS011;61528;49.456;11.098;2023-05-16T07:08:10;10.43;;;9.40;;
18661;SDS011;61528;49.456;11.098;2023-05-16T07:10:36;8.83;;;8.03;;
18661;SDS011;61528;49.456;11.098;2023-05-16T07:13:03;9.33;;;8.43;;
18661;SDS011;61528;49.456;11.098;2023-05-16T07:15:29;9.90;;;8.93;;
18661;SDS011;61528;49.456;11.098;2023-05-16T07:17:56;10.13;;;8.70;;
18661;SDS011;61528;49.456;11.098;2023-05-16T07:20:23;9.43;;;8.43;;
18661;SDS011;61528;49.456;11.098;2023-05-16T07:22:49;9.03;;;8.23;;
18661;SDS011;61528;49.456;11.098;2023-05-16T07:25:15;9.73;;;8.80;;
18661;SDS011;61528;49.456;11.098;2023-05-16T07:27:42;9.73;;;8.83;;
18661;SDS011;61528;49.456;11.098;2023-05-16T07:30:09;9.80;;;8.43;;
18661;SDS011;61528;49.456;11.098;2023-05-16T07:32:36;9.50;;;8.47;;
18661;SDS011;61528;49.456;11.098;2023-05-16T07:35:02;9.43;;;8.53;;
18661;SDS011;61528;49.456;11.098;2023-05-16T07:37:29;9.27;;;8.37;;
18661;SDS011;61528;49.456;11.098;2023-05-16T07:39:55;9.57;;;8.47;;
18661;SDS011;61528;49.456;11.098;2023-05-16T07:42:21;11.73;;;8.37;;
18661;SDS011;61528;49.456;11.098;2023-05-16T07:44:48;8.80;;;8.03;;
18661;SDS011;61528;49.456;11.098;2023-05-16T07:47:14;9.50;;;8.33;;
18661;SDS011;61528;49.456;11.098;2023-05-16T07:49:40;8.87;;;7.97;;
18661;SDS011;61528;49.456;11.098;2023-05-16T07:52:06;8.93;;;7.97;;
18661;SDS011;61528;49.456;11.098;2023-05-16T07:54:33;8.73;;;7.97;;
18661;SDS011;61528;49.456;11.098;2023-05-16T07:57:00;11.77;;;8.53;;
18661;SDS011;61528;49.456;11.098;2023-05-16T07:59:27;9.33;;;8.37;;
18661;SDS011;61528;49.456;11.098;2023-05-16T08:01:53;9.57;;;8.63;;
18661;SDS011;61528;49.456;11.098;2023-05-16T08:04:20;12.87;;;8.60;;
18661;SDS011;61528;49.456;11.098;2023-05-16T08:06:46;10.00;;;8.47;;
18661;SDS011;61528;49.456;11.098;2023-05-16T08:09:12;11.27;;;8.07;;
18661;SDS011;61528;49.456;11.098;2023-05-16T08:11:38;10.33;;;8.87;;
18661;SDS011;61528;49.456;11.098;2023-05-16T08:14:05;9.03;;;8.23;;
18661;SDS011;61528;49.456;11.098;2023-05-16T08:16:31;10.77;;;7.80;;
18661;SDS011;61528;49.456;11.098;2023-05-16T08:18:57;8.70;;;7.87;;
18661;SDS011;61528;49.456;11.098;2023-05-16T08:21:24;8.47;;;7.77;;
18661;SDS011;61528;49.456;11.098;2023-05-16T08:23:51;8.03;;;7.23;;
18661;SDS011;61528;49.456;11.098;2023-05-16T08:26:17;9.13;;;7.90;;
18661;SDS011;61528;49.456;11.098;2023-05-16T08:28:43;10.07;;;8.10;;
18661;SDS011;61528;49.456;11.098;2023-05-16T08:31:09;9.00;;;7.57;;
18661;SDS011;61528;49.456;11.098;2023-05-16T08:33:36;9.60;;;7.13;;
18661;SDS011;61528;49.456;11.098;2023-05-16T08:36:02;7.33;;;6.73;;
18661;SDS011;61528;49.456;11.098;2023-05-16T08:38:28;8.90;;;6.43;;
18661;SDS011;61528;49.456;11.098;2023-05-16T08:40:54;6.90;;;6.20;;
18661;SDS011;61528;49.456;11.098;2023-05-16T08:43:20;6.77;;;6.17;;
18661;SDS011;61528;49.456;11.098;2023-05-16T08:45:47;6.87;;;6.17;;
18661;SDS011;61528;49.456;11.098;2023-05-16T08:48:14;8.37;;;6.40;;
18661;SDS011;61528;49.456;11.098;2023-05-16T08:50:41;7.17;;;6.40;;
18661;SDS011;61528;49.456;11.098;2023-05-16T08:53:08;7.40;;;6.03;;
18661;SDS011;61528;49.456;11.098;2023-05-16T08:55:35;8.43;;;7.17;;
18661;SDS011;61528;49.456;11.098;2023-05-16T08:58:01;7.10;;;6.50;;
18661;SDS011;61528;49.456;11.098;2023-05-16T09:00:29;7.37;;;6.63;;
18661;SDS011;61528;49.456;11.098;2023-05-16T09:02:55;6.97;;;6.33;;
18661;SDS011;61528;49.456;11.098;2023-05-16T09:05:22;6.87;;;6.17;;
18661;SDS011;61528;49.456;11.098;2023-05-16T09:07:49;6.60;;;5.97;;
18661;SDS011;61528;49.456;11.098;2023-05-16T09:10:15;7.10;;;6.47;;
18661;SDS011;61528;49.456;11.098;2023-05-16T09:12:41;6.47;;;5.87;;
18661;SDS011;61528;49.456;11.098;2023-05-16T09:15:08;7.87;;;7.17;;
18661;SDS011;61528;49.456;11.098;2023-05-16T09:17:42;7.27;;;6.53;;
18661;SDS011;61528;49.456;11.098;2023-05-16T09:20:13;8.60;;;6.60;;
18661;SDS011;61528;49.456;11.098;2023-05-16T09:22:48;8.13;;;7.40;;
18661;SDS011;61528;49.456;11.098;2023-05-16T09:25:16;8.83;;;7.97;;
18661;SDS011;61528;49.456;11.098;2023-05-16T09:27:42;8.87;;;7.97;;
18661;SDS011;61528;49.456;11.098;2023-05-16T09:30:08;9.80;;;8.80;;
18661;SDS011;61528;49.456;11.098;2023-05-16T09:32:35;10.00;;;9.00;;
18661;SDS011;61528;49.456;11.098;2023-05-16T09:35:01;10.47;;;9.50;;
18661;SDS011;61528;49.456;11.098;2023-05-16T09:37:27;10.60;;;9.50;;
18661;SDS011;61528;49.456;11.098;2023-05-16T09:39:55;10.93;;;9.90;;
18661;SDS011;61528;49.456;11.098;2023-05-16T09:42:21;11.40;;;10.23;;
18661;SDS011;61528;49.456;11.098;2023-05-16T09:44:48;11.10;;;9.83;;
18661;SDS011;61528;49.456;11.098;2023-05-16T09:47:15;12.73;;;10.27;;
18661;SDS011;61528;49.456;11.098;2023-05-16T09:49:42;11.87;;;10.73;;
18661;SDS011;61528;49.456;11.098;2023-05-16T09:52:09;11.20;;;10.07;;
18661;SDS011;61528;49.456;11.098;2023-05-16T09:54:35;10.90;;;9.77;;
18661;SDS011;61528;49.456;11.098;2023-05-16T09:57:01;10.63;;;9.63;;
18661;SDS011;61528;49.456;11.098;2023-05-16T09:59:28;10.97;;;9.97;;
18661;SDS011;61528;49.456;11.098;2023-05-16T10:01:58;10.80;;;9.70;;
18661;SDS011;61528;49.456;11.098;2023-05-16T10:04:25;10.40;;;9.27;;
18661;SDS011;61528;49.456;11.098;2023-05-16T10:06:52;9.93;;;8.93;;
18661;SDS011;61528;49.456;11.098;2023-05-16T10:09:21;9.57;;;8.57;;
18661;SDS011;61528;49.456;11.098;2023-05-16T10:11:47;9.10;;;8.30;;
18661;SDS011;61528;49.456;11.098;2023-05-16T10:14:16;10.27;;;8.30;;
18661;SDS011;61528;49.456;11.098;2023-05-16T10:16:43;8.57;;;7.60;;
18661;SDS011;61528;49.456;11.098;2023-05-16T10:19:11;9.27;;;8.37;;
18661;SDS011;61528;49.456;11.098;2023-05-16T10:21:38;8.97;;;8.07;;
18661;SDS011;61528;49.456;11.098;2023-05-16T10:24:05;8.00;;;7.20;;
18661;SDS011;61528;49.456;11.098;2023-05-16T10:26:35;9.40;;;8.37;;
18661;SDS011;61528;49.456;11.098;2023-05-16T10:31:31;8.47;;;7.37;;
18661;SDS011;61528;49.456;11.098;2023-05-16T10:33:58;7.73;;;7.07;;
18661;SDS011;61528;49.456;11.098;2023-05-16T10:36:24;10.53;;;7.67;;
18661;SDS011;61528;49.456;11.098;2023-05-16T10:38:51;7.80;;;7.00;;
18661;SDS011;61528;49.456;11.098;2023-05-16T10:41:17;7.50;;;6.80;;
18661;SDS011;61528;49.456;11.098;2023-05-16T10:43:44;8.70;;;6.93;;
18661;SDS011;61528;49.456;11.098;2023-05-16T10:46:20;8.27;;;6.83;;
18661;SDS011;61528;49.456;11.098;2023-05-16T10:48:47;6.83;;;6.23;;
18661;SDS011;61528;49.456;11.098;2023-05-16T10:54:04;6.87;;;6.20;;
18661;SDS011;61528;49.456;11.098;2023-05-16T10:56:31;9.37;;;6.20;;
18661;SDS011;61528;49.456;11.098;2023-05-16T10:58:58;5.67;;;5.23;;
18661;SDS011;61528;49.456;11.098;2023-05-16T11:01:34;5.80;;;5.30;;
18661;SDS011;61528;49.456;11.098;2023-05-16T11:04:09;6.50;;;5.90;;
18661;SDS011;61528;49.456;11.098;2023-05-16T11:11:38;7.40;;;6.00;;
18661;SDS011;61528;49.456;11.098;2023-05-16T11:14:05;6.83;;;6.07;;
18661;SDS011;61528;49.456;11.098;2023-05-16T11:16:32;6.53;;;5.90;;
18661;SDS011;61528;49.456;11.098;2023-05-16T11:19:05;6.33;;;5.73;;
18661;SDS011;61528;49.456;11.098;2023-05-16T11:24:29;6.97;;;5.97;;
18661;SDS011;61528;49.456;11.098;2023-05-16T11:26:56;6.63;;;5.50;;
18661;SDS011;61528;49.456;11.098;2023-05-16T11:29:23;6.57;;;5.97;;
18661;SDS011;61528;49.456;11.098;2023-05-16T11:31:51;6.03;;;5.37;;
18661;SDS011;61528;49.456;11.098;2023-05-16T11:34:18;6.10;;;5.47;;
18661;SDS011;61528;49.456;11.098;2023-05-16T11:36:44;6.20;;;5.70;;
18661;SDS011;61528;49.456;11.098;2023-05-16T11:39:10;5.90;;;5.40;;
18661;SDS011;61528;49.456;11.098;2023-05-16T11:41:37;5.67;;;5.27;;
18661;SDS011;61528;49.456;11.098;2023-05-16T11:44:05;8.03;;;5.37;;
18661;SDS011;61528;49.456;11.098;2023-05-16T11:46:32;6.07;;;5.47;;
18661;SDS011;61528;49.456;11.098;2023-05-16T11:48:58;6.57;;;5.40;;
18661;SDS011;61528;49.456;11.098;2023-05-16T11:51:25;6.10;;;5.50;;
18661;SDS011;61528;49.456;11.098;2023-05-16T11:53:51;5.20;;;4.70;;
18661;SDS011;61528;49.456;11.098;2023-05-16T11:56:19;8.43;;;4.83;;
18661;SDS011;61528;49.456;11.098;2023-05-16T11:58:47;5.60;;;4.90;;
18661;SDS011;61528;49.456;11.098;2023-05-16T12:01:14;4.47;;;4.17;;
18661;SDS011;61528;49.456;11.098;2023-05-16T12:03:41;5.90;;;4.57;;
18661;SDS011;61528;49.456;11.098;2023-05-16T12:06:07;4.70;;;4.30;;
18661;SDS011;61528;49.456;11.098;2023-05-16T12:08:33;4.60;;;4.20;;
18661;SDS011;61528;49.456;11.098;2023-05-16T12:11:00;5.97;;;4.20;;
18661;SDS011;61528;49.456;11.098;2023-05-16T12:13:26;4.40;;;4.07;;
18661;SDS011;61528;49.456;11.098;2023-05-16T12:15:52;5.13;;;4.30;;
18661;SDS011;61528;49.456;11.098;2023-05-16T12:18:19;4.53;;;4.10;;
18661;SDS011;61528;49.456;11.098;2023-05-16T12:20:46;6.90;;;5.70;;
18661;SDS011;61528;49.456;11.098;2023-05-16T12:23:13;4.80;;;4.13;;
18661;SDS011;61528;49.456;11.098;2023-05-16T12:25:43;4.80;;;4.40;;
18661;SDS011;61528;49.456;11.098;2023-05-16T12:28:13;5.20;;;4.20;;
18661;SDS011;61528;49.456;11.098;2023-05-16T12:30:41;7.50;;;4.10;;
18661;SDS011;61528;49.456;11.098;2023-05-16T12:33:09;5.20;;;4.67;;
18661;SDS011;61528;49.456;11.098;2023-05-16T12:35:40;5.13;;;4.63;;
18661;SDS011;61528;49.456;11.098;2023-05-16T12:38:06;5.40;;;3.77;;
18661;SDS011;61528;49.456;11.098;2023-05-16T12:40:33;5.23;;;4.70;;
18661;SDS011;61528;49.456;11.098;2023-05-16T12:43:01;5.07;;;4.57;;
18661;SDS011;61528;49.456;11.098;2023-05-16T12:45:27;4.90;;;4.40;;
18661;SDS011;61528;49.456;11.098;2023-05-16T12:47:53;4.37;;;4.00;;
18661;SDS011;61528;49.456;11.098;2023-05-16T12:50:20;4.93;;;4.57;;
18661;SDS011;61528;49.456;11.098;2023-05-16T12:52:47;7.57;;;5.00;;
18661;SDS011;61528;49.456;11.098;2023-05-16T12:55:14;5.90;;;4.37;;
18661;SDS011;61528;49.456;11.098;2023-05-16T12:57:41;5.00;;;4.47;;
18661;SDS011;61528;49.456;11.098;2023-05-16T13:00:09;6.37;;;4.90;;
18661;SDS011;61528;49.456;11.098;2023-05-16T13:02:36;6.37;;;4.73;;
18661;SDS011;61528;49.456;11.098;2023-05-16T13:05:02;4.33;;;3.93;;
18661;SDS011;61528;49.456;11.098;2023-05-16T13:07:29;6.80;;;4.30;;
18661;SDS011;61528;49.456;11.098;2023-05-16T13:09:55;5.73;;;4.40;;
18661;SDS011;61528;49.456;11.098;2023-05-16T13:12:22;5.83;;;4.00;;
18661;SDS011;61528;49.456;11.098;2023-05-16T13:14:53;5.37;;;4.60;;
18661;SDS011;61528;49.456;11.098;2023-05-16T13:17:19;5.37;;;4.70;;
18661;SDS011;61528;49.456;11.098;2023-05-16T13:19:46;6.13;;;4.33;;
18661;SDS011;61528;49.456;11.098;2023-05-16T13:22:12;8.60;;;4.23;;
18661;SDS011;61528;49.456;11.098;2023-05-16T13:24:38;4.93;;;4.43;;
18661;SDS011;61528;49.456;11.098;2023-05-16T13:27:04;5.40;;;4.90;;
18661;SDS011;61528;49.456;11.098;2023-05-16T13:29:30;5.00;;;4.53;;
18661;SDS011;61528;49.456;11.098;2023-05-16T13:31:58;5.37;;;4.50;;
18661;SDS011;61528;49.456;11.098;2023-05-16T13:34:24;4.70;;;4.30;;
18661;SDS011;61528;49.456;11.098;2023-05-16T13:36:50;6.27;;;4.73;;
18661;SDS011;61528;49.456;11.098;2023-05-16T13:39:17;5.10;;;4.60;;
18661;SDS011;61528;49.456;11.098;2023-05-16T13:41:43;5.10;;;4.60;;
18661;SDS011;61528;49.456;11.098;2023-05-16T13:44:10;5.53;;;4.13;;
18661;SDS011;61528;49.456;11.098;2023-05-16T13:46:37;5.73;;;4.10;;
18661;SDS011;61528;49.456;11.098;2023-05-16T13:49:03;5.03;;;3.90;;
18661;SDS011;61528;49.456;11.098;2023-05-16T13:51:31;5.60;;;4.20;;
18661;SDS011;61528;49.456;11.098;2023-05-16T13:53:57;4.27;;;3.83;;
18661;SDS011;61528;49.456;11.098;2023-05-16T13:56:23;6.20;;;3.70;;
18661;SDS011;61528;49.456;11.098;2023-05-16T13:58:50;4.77;;;3.43;;
18661;SDS011;61528;49.456;11.098;2023-05-16T14:01:16;4.53;;;3.00;;
18661;SDS011;61528;49.456;11.098;2023-05-16T14:03:42;3.93;;;3.23;;
18661;SDS011;61528;49.456;11.098;2023-05-16T14:06:08;3.97;;;3.47;;
18661;SDS011;61528;49.456;11.098;2023-05-16T14:08:35;4.80;;;3.30;;
18661;SDS011;61528;49.456;11.098;2023-05-16T14:11:01;3.50;;;3.00;;
18661;SDS011;61528;49.456;11.098;2023-05-16T14:13:27;3.90;;;2.90;;
18661;SDS011;61528;49.456;11.098;2023-05-16T14:15:54;2.90;;;2.70;;
18661;SDS011;61528;49.456;11.098;2023-05-16T14:18:22;3.03;;;2.57;;
18661;SDS011;61528;49.456;11.098;2023-05-16T14:20:48;2.70;;;2.50;;
18661;SDS011;61528;49.456;11.098;2023-05-16T14:23:16;2.80;;;2.30;;
18661;SDS011;61528;49.456;11.098;2023-05-16T14:25:42;2.57;;;2.33;;
18661;SDS011;61528;49.456;11.098;2023-05-16T14:28:09;2.50;;;2.30;;
18661;SDS011;61528;49.456;11.098;2023-05-16T14:30:35;2.70;;;2.50;;
18661;SDS011;61528;49.456;11.098;2023-05-16T14:33:01;3.10;;;2.10;;
18661;SDS011;61528;49.456;11.098;2023-05-16T14:35:27;2.87;;;2.20;;
18661;SDS011;61528;49.456;11.098;2023-05-16T14:37:55;2.10;;;2.00;;
18661;SDS011;61528;49.456;11.098;2023-05-16T14:40:21;2.70;;;2.50;;
18661;SDS011;61528;49.456;11.098;2023-05-16T14:42:47;2.70;;;2.23;;
18661;SDS011;61528;49.456;11.098;2023-05-16T14:45:13;2.20;;;2.00;;
18661;SDS011;61528;49.456;11.098;2023-05-16T14:47:40;2.60;;;2.40;;
18661;SDS011;61528;49.456;11.098;2023-05-16T14:50:06;2.43;;;2.23;;
18661;SDS011;61528;49.456;11.098;2023-05-16T14:52:32;2.63;;;2.10;;
18661;SDS011;61528;49.456;11.098;2023-05-16T14:54:59;6.80;;;3.23;;
18661;SDS011;61528;49.456;11.098;2023-05-16T14:57:25;3.97;;;2.50;;